»·PEaware :: SWA485@ KPHX-KSFO

SWA485@ :: KPHX-KSFO

FLIGHT INFORMATION

Flight Status: Arrived
Operator:
Southwest Airlines
More flights by this operator :: More flights under this callsign
Pilot: Jone M. (10385)
Aircraft: BOEING 737-300
(B733)
More flights by this aircraft type
Origin: KPHX Phoenix Sky Harbor Intl
United States
Destination: KSFO San Francisco Intl
United States
More flights between these airports :: More routes between these airports
Route: KEENS2 HRRBR CURIV J212 DECAS PMD AVE MAKRS SERFR SERFR3
File this flight plan on PilotEdge
Remarks: PBN / A1B3B4B5D3D4 DOF / 181215 REG / N368SW EET / KZLA0022 KZOA0111 OPR / SWA PER / C RMK / TCAS SIMBRIEF
Altitude:
(Current/Filed)
36,000ft
Speed:
(Current/Filed)
438kts
Departed: 15-Dec-18 03:27 PM
Arrived: 15-Dec-18 05:09 PM
Distance/Time
Traveled:
565nm/1:42
Distance/Time
To Go:
Arrived

Flight Plot

Page will automatically refresh every two minutes.

Flight plan parsing failed; only flown route is shown


Map Options




Map Legend


Flown Route
Filed Route
Departure Airport
Arrival Airport
Navaid (VOR, NDB)
Fix

Horizontal Profiles

Position Reports

Time Latitude Longitude Heading Altitude Ground
Speed
15-Dec-18 14:48 33.433739 -111.996221 303 1141ft 0kts
15-Dec-18 14:49 33.433739 -111.996221 303 1141ft 0kts
15-Dec-18 14:50 33.433739 -111.996221 303 1141ft 0kts
15-Dec-18 14:51 33.433739 -111.996221 303 1141ft 0kts
15-Dec-18 14:52 33.433739 -111.996221 303 1141ft 0kts
15-Dec-18 14:53 33.433739 -111.996221 303 1141ft 0kts
15-Dec-18 14:54 33.433739 -111.996221 303 1141ft 0kts
15-Dec-18 14:55 33.433739 -111.996221 303 1141ft 0kts
15-Dec-18 14:56 33.433739 -111.996221 303 1141ft 0kts
15-Dec-18 14:57 33.433739 -111.996221 303 1141ft 0kts
15-Dec-18 14:58 33.433739 -111.996221 303 1141ft 0kts
15-Dec-18 14:59 33.433739 -111.996221 303 1141ft 0kts
15-Dec-18 15:00 33.433739 -111.996221 303 1141ft 0kts
15-Dec-18 15:01 33.433739 -111.996221 303 1141ft 0kts
15-Dec-18 15:02 33.433739 -111.996221 303 1141ft 0kts
15-Dec-18 15:03 33.433738 -111.996220 303 1141ft 0kts
15-Dec-18 15:04 33.433738 -111.996220 303 1141ft 0kts
15-Dec-18 15:05 33.433738 -111.996220 303 1141ft 0kts
15-Dec-18 15:06 33.433738 -111.996220 303 1141ft 0kts
15-Dec-18 15:07 33.433738 -111.996220 303 1141ft 0kts
15-Dec-18 15:08 33.433738 -111.996220 303 1141ft 0kts
15-Dec-18 15:09 33.433738 -111.996220 303 1141ft 0kts
15-Dec-18 15:10 33.433738 -111.996220 303 1141ft 0kts
15-Dec-18 15:11 33.433738 -111.996220 303 1141ft 0kts
15-Dec-18 15:12 33.433735 -111.996214 304 1141ft 1kts
15-Dec-18 15:13 33.433967 -111.995749 174 1141ft 0kts
15-Dec-18 15:14 33.433970 -111.995749 174 1141ft 0kts
15-Dec-18 15:15 33.433969 -111.995749 174 1141ft 0kts
15-Dec-18 15:16 33.433969 -111.995749 174 1141ft 0kts
15-Dec-18 15:17 33.433807 -111.995745 179 1141ft 4kts
15-Dec-18 15:18 33.432756 -111.995632 177 1141ft 0kts
15-Dec-18 15:19 33.432609 -111.995654 211 1141ft 0kts
15-Dec-18 15:20 33.432799 -111.996401 278 1141ft 11kts
15-Dec-18 15:21 33.432838 -112.003848 270 1141ft 24kts
15-Dec-18 15:22 33.432887 -112.012665 270 1141ft 27kts
15-Dec-18 15:23 33.432890 -112.022199 268 1141ft 29kts
15-Dec-18 15:24 33.432003 -112.026970 179 1141ft 2kts
15-Dec-18 15:25 33.431063 -112.025914 85 1141ft 11kts
15-Dec-18 15:26 33.431145 -111.992626 88 1748ft 200kts
15-Dec-18 15:27 33.433536 -111.920785 86 3964ft 230kts
15-Dec-18 15:28 33.432432 -111.875799 114 5640ft 238kts
15-Dec-18 15:29 33.421505 -111.860965 142 6446ft 239kts
15-Dec-18 15:30 33.360681 -111.863638 231 8979ft 247kts
15-Dec-18 15:31 33.357174 -111.939652 275 11067ft 270kts
15-Dec-18 15:32 33.368133 -112.042630 280 11759ft 355kts
15-Dec-18 15:33 33.386001 -112.161793 278 14799ft 359kts
15-Dec-18 15:34 33.403770 -112.281726 277 17346ft 371kts
15-Dec-18 15:35 33.422021 -112.405524 276 19743ft 381kts
15-Dec-18 15:36 33.440566 -112.532400 275 21953ft 389kts
15-Dec-18 15:37 33.451261 -112.660465 266 23867ft 393kts
15-Dec-18 15:38 33.452909 -112.793544 268 25738ft 401kts
15-Dec-18 15:39 33.476644 -112.926494 278 27122ft 421kts
15-Dec-18 15:40 33.501972 -113.060253 278 28473ft 430kts
15-Dec-18 15:41 33.527367 -113.190076 278 29781ft 424kts
15-Dec-18 15:42 33.551395 -113.320114 278 31099ft 406kts
15-Dec-18 15:43 33.573305 -113.439997 278 32371ft 399kts
15-Dec-18 15:45 33.584585 -113.502035 278 33035ft 396kts
15-Dec-18 15:46 33.605567 -113.617764 278 33697ft 399kts
15-Dec-18 15:47 33.629557 -113.751110 277 34113ft 410kts
15-Dec-18 15:48 33.653727 -113.885556 278 35116ft 405kts
15-Dec-18 15:49 33.677959 -114.017606 278 36073ft 400kts
15-Dec-18 15:50 33.702218 -114.150142 278 36140ft 405kts
15-Dec-18 15:51 33.726405 -114.283040 278 36139ft 405kts
15-Dec-18 15:52 33.750398 -114.415759 278 36145ft 404kts
15-Dec-18 15:53 33.773751 -114.548836 272 36142ft 402kts
15-Dec-18 15:54 33.781224 -114.683274 270 36124ft 400kts
15-Dec-18 15:55 33.788955 -114.817256 270 36152ft 400kts
15-Dec-18 15:56 33.796603 -114.951348 270 36152ft 401kts
15-Dec-18 15:57 33.804087 -115.085273 274 36114ft 403kts
15-Dec-18 15:58 33.811648 -115.223128 275 36062ft 418kts
15-Dec-18 15:59 33.819269 -115.365199 275 36111ft 428kts
15-Dec-18 16:00 33.837750 -115.504166 293 36120ft 423kts
15-Dec-18 16:01 33.881522 -115.636221 292 36114ft 423kts
15-Dec-18 16:02 33.924110 -115.768870 292 36114ft 423kts
15-Dec-18 16:02 33.959511 -115.879391 292 36134ft 423kts
15-Dec-18 16:04 34.009003 -116.034598 292 36170ft 423kts
15-Dec-18 16:04 34.044017 -116.144848 292 36197ft 423kts
15-Dec-18 16:05 34.086165 -116.278106 292 36194ft 423kts
15-Dec-18 16:06 34.128308 -116.411101 292 36172ft 423kts
15-Dec-18 16:07 34.170143 -116.544402 292 36174ft 423kts
15-Dec-18 16:08 34.211681 -116.677561 291 36114ft 424kts
15-Dec-18 16:09 34.252811 -116.810168 291 36125ft 424kts
15-Dec-18 16:10 34.294230 -116.944072 292 36121ft 421kts
15-Dec-18 16:11 34.335127 -117.076858 294 36110ft 421kts
15-Dec-18 16:12 34.376324 -117.211210 294 36119ft 426kts
15-Dec-18 16:13 34.417761 -117.347012 294 36182ft 428kts
15-Dec-18 16:14 34.458929 -117.482525 294 36197ft 428kts
15-Dec-18 16:15 34.500175 -117.618928 294 36196ft 427kts
15-Dec-18 16:16 34.541155 -117.755406 294 36191ft 428kts
15-Dec-18 16:17 34.581907 -117.891479 294 36191ft 428kts
15-Dec-18 16:18 34.622730 -118.028389 294 36192ft 428kts
15-Dec-18 16:19 34.666592 -118.129757 307 36195ft 421kts
15-Dec-18 16:20 34.694305 -118.180732 307 36196ft 421kts
15-Dec-18 16:21 34.739760 -118.264428 307 36194ft 421kts
15-Dec-18 16:22 34.803236 -118.381476 307 36192ft 421kts
15-Dec-18 16:23 34.867888 -118.501118 307 36202ft 421kts
15-Dec-18 16:24 34.932321 -118.620739 306 36206ft 416kts
15-Dec-18 16:25 34.994736 -118.737280 305 36202ft 413kts
15-Dec-18 16:26 35.057823 -118.855219 304 36196ft 411kts
15-Dec-18 16:27 35.119653 -118.970929 303 36145ft 409kts
15-Dec-18 16:28 35.182169 -119.088239 303 36146ft 408kts
15-Dec-18 16:29 35.244197 -119.205325 303 36148ft 409kts
15-Dec-18 16:30 35.306193 -119.322763 303 36147ft 409kts
15-Dec-18 16:31 35.367881 -119.439992 303 36147ft 408kts
15-Dec-18 16:32 35.429800 -119.558052 303 36148ft 408kts
15-Dec-18 16:33 35.491297 -119.675817 302 36120ft 409kts
15-Dec-18 16:34 35.552845 -119.794176 302 36150ft 409kts
15-Dec-18 16:35 35.614174 -119.912319 302 36144ft 408kts
15-Dec-18 16:36 35.654417 -120.040590 276 36135ft 412kts
15-Dec-18 16:37 35.667021 -120.181325 278 36363ft 414kts
15-Dec-18 16:38 35.680737 -120.321807 278 36171ft 412kts
15-Dec-18 16:39 35.723467 -120.451354 296 36140ft 409kts
15-Dec-18 16:40 35.765083 -120.559081 296 36138ft 410kts
15-Dec-18 16:41 35.804486 -120.662549 295 36119ft 410kts
15-Dec-18 16:42 35.852972 -120.790442 295 36139ft 410kts
15-Dec-18 16:43 35.901403 -120.918433 295 36139ft 409kts
15-Dec-18 16:44 35.949603 -121.046322 295 35424ft 403kts
15-Dec-18 16:45 35.995966 -121.169815 294 34088ft 393kts
15-Dec-18 16:46 36.041482 -121.291551 293 32723ft 397kts
15-Dec-18 16:47 36.108862 -121.398285 326 30897ft 419kts
15-Dec-18 16:48 36.209465 -121.474522 324 28662ft 414kts
15-Dec-18 16:49 36.293169 -121.539924 324 26746ft 404kts
15-Dec-18 16:50 36.387070 -121.613550 324 24221ft 395kts
15-Dec-18 16:51 36.479917 -121.686841 323 21476ft 389kts
15-Dec-18 16:52 36.569995 -121.758159 323 19406ft 368kts
15-Dec-18 16:53 36.656705 -121.826839 323 17999ft 365kts
15-Dec-18 16:54 36.743304 -121.893263 334 16998ft 363kts
15-Dec-18 16:55 36.843388 -121.922789 344 16201ft 365kts
15-Dec-18 16:56 36.942624 -121.950433 344 14482ft 356kts
15-Dec-18 16:57 37.036740 -121.986163 340 12632ft 340kts
15-Dec-18 16:58 37.118587 -122.018109 340 11011ft 325kts
15-Dec-18 16:59 37.203192 -122.051113 341 9296ft 309kts
15-Dec-18 17:00 37.281556 -122.081797 341 7966ft 282kts
15-Dec-18 17:01 37.358232 -122.112094 343 6143ft 287kts
15-Dec-18 17:02 37.430978 -122.137920 346 4894ft 264kts
15-Dec-18 17:03 37.499177 -122.160163 343 3433ft 238kts
15-Dec-18 17:04 37.544962 -122.210898 303 2861ft 209kts
15-Dec-18 17:05 37.571911 -122.263211 298 1839ft 154kts
15-Dec-18 17:06 37.591162 -122.309779 298 947ft 142kts
15-Dec-18 17:07 37.610001 -122.354249 298 138ft 140kts
15-Dec-18 17:08 37.621551 -122.381852 295 20ft 22kts
15-Dec-18 17:09 37.619526 -122.381635 116 20ft 20kts
15-Dec-18 17:10 37.614056 -122.381324 207 20ft 25kts
15-Dec-18 17:11 37.612841 -122.383194 297 20ft 1kts

Navigation Log

Ident Type
Flight plan parsing failed, navigation log unavailable